sensor_id;sensor_type;location;lat;lon;timestamp;P1;durP1;ratioP1;P2;durP2;ratioP2
35990;SDS011;22064;42.672;23.282;2023-03-01T00:02:21;13.88;;;5.55;;
35990;SDS011;22064;42.672;23.282;2023-03-01T00:04:47;10.82;;;5.20;;
35990;SDS011;22064;42.672;23.282;2023-03-01T00:07:13;14.25;;;6.40;;
35990;SDS011;22064;42.672;23.282;2023-03-01T00:09:39;12.27;;;5.88;;
35990;SDS011;22064;42.672;23.282;2023-03-01T00:12:05;12.20;;;5.82;;
35990;SDS011;22064;42.672;23.282;2023-03-01T00:14:31;11.43;;;5.57;;
35990;SDS011;22064;42.672;23.282;2023-03-01T00:16:57;13.00;;;6.35;;
35990;SDS011;22064;42.672;23.282;2023-03-01T00:19:23;12.80;;;5.85;;
35990;SDS011;22064;42.672;23.282;2023-03-01T00:21:49;12.13;;;6.07;;
35990;SDS011;22064;42.672;23.282;2023-03-01T00:24:15;11.20;;;5.60;;
35990;SDS011;22064;42.672;23.282;2023-03-01T00:26:42;11.63;;;5.75;;
35990;SDS011;22064;42.672;23.282;2023-03-01T00:29:08;10.60;;;5.90;;
35990;SDS011;22064;42.672;23.282;2023-03-01T00:31:34;10.55;;;5.80;;
35990;SDS011;22064;42.672;23.282;2023-03-01T00:34:01;10.88;;;6.13;;
35990;SDS011;22064;42.672;23.282;2023-03-01T00:36:30;9.57;;;5.40;;
35990;SDS011;22064;42.672;23.282;2023-03-01T00:39:00;10.13;;;4.80;;
35990;SDS011;22064;42.672;23.282;2023-03-01T00:41:28;9.35;;;5.10;;
35990;SDS011;22064;42.672;23.282;2023-03-01T00:43:55;8.85;;;5.03;;
35990;SDS011;22064;42.672;23.282;2023-03-01T00:46:22;8.23;;;4.65;;
35990;SDS011;22064;42.672;23.282;2023-03-01T00:48:50;8.18;;;4.85;;
35990;SDS011;22064;42.672;23.282;2023-03-01T00:51:17;9.05;;;5.18;;
35990;SDS011;22064;42.672;23.282;2023-03-01T00:53:44;9.73;;;4.72;;
35990;SDS011;22064;42.672;23.282;2023-03-01T00:56:12;9.38;;;4.93;;
35990;SDS011;22064;42.672;23.282;2023-03-01T00:58:39;10.65;;;5.38;;
35990;SDS011;22064;42.672;23.282;2023-03-01T01:03:43;10.18;;;5.18;;
35990;SDS011;22064;42.672;23.282;2023-03-01T01:06:45;9.57;;;4.85;;
35990;SDS011;22064;42.672;23.282;2023-03-01T01:09:05;8.68;;;4.78;;
35990;SDS011;22064;42.672;23.282;2023-03-01T01:11:33;7.97;;;4.55;;
35990;SDS011;22064;42.672;23.282;2023-03-01T01:14:01;7.57;;;4.63;;
35990;SDS011;22064;42.672;23.282;2023-03-01T01:16:28;7.10;;;4.22;;
35990;SDS011;22064;42.672;23.282;2023-03-01T01:18:55;8.30;;;4.45;;
35990;SDS011;22064;42.672;23.282;2023-03-01T01:21:23;9.18;;;4.07;;
35990;SDS011;22064;42.672;23.282;2023-03-01T01:23:50;8.50;;;4.38;;
35990;SDS011;22064;42.672;23.282;2023-03-01T01:26:22;7.50;;;4.03;;
35990;SDS011;22064;42.672;23.282;2023-03-01T01:28:53;7.28;;;4.00;;
35990;SDS011;22064;42.672;23.282;2023-03-01T01:31:19;7.07;;;4.13;;
35990;SDS011;22064;42.672;23.282;2023-03-01T01:33:46;9.65;;;5.10;;
35990;SDS011;22064;42.672;23.282;2023-03-01T01:36:12;6.00;;;3.72;;
35990;SDS011;22064;42.672;23.282;2023-03-01T01:38:38;6.13;;;3.50;;
35990;SDS011;22064;42.672;23.282;2023-03-01T01:41:05;5.63;;;3.50;;
35990;SDS011;22064;42.672;23.282;2023-03-01T01:43:33;6.40;;;3.60;;
35990;SDS011;22064;42.672;23.282;2023-03-01T01:48:43;4.10;;;3.08;;
35990;SDS011;22064;42.672;23.282;2023-03-01T01:51:32;5.93;;;3.63;;
35990;SDS011;22064;42.672;23.282;2023-03-01T01:54:06;5.07;;;3.47;;
35990;SDS011;22064;42.672;23.282;2023-03-01T01:56:37;4.93;;;3.05;;
35990;SDS011;22064;42.672;23.282;2023-03-01T01:59:05;5.53;;;3.30;;
35990;SDS011;22064;42.672;23.282;2023-03-01T02:01:32;4.45;;;3.20;;
35990;SDS011;22064;42.672;23.282;2023-03-01T02:03:58;4.45;;;3.28;;
35990;SDS011;22064;42.672;23.282;2023-03-01T02:06:41;4.07;;;2.78;;
35990;SDS011;22064;42.672;23.282;2023-03-01T02:09:16;5.15;;;3.40;;
35990;SDS011;22064;42.672;23.282;2023-03-01T02:11:46;4.22;;;3.05;;
35990;SDS011;22064;42.672;23.282;2023-03-01T02:14:14;4.43;;;3.30;;
35990;SDS011;22064;42.672;23.282;2023-03-01T02:16:42;3.70;;;2.97;;
35990;SDS011;22064;42.672;23.282;2023-03-01T02:19:08;3.78;;;2.70;;
35990;SDS011;22064;42.672;23.282;2023-03-01T02:24:21;4.65;;;3.38;;
35990;SDS011;22064;42.672;23.282;2023-03-01T02:26:56;4.13;;;3.10;;
35990;SDS011;22064;42.672;23.282;2023-03-01T02:29:23;4.97;;;3.35;;
35990;SDS011;22064;42.672;23.282;2023-03-01T02:31:51;3.63;;;2.90;;
35990;SDS011;22064;42.672;23.282;2023-03-01T02:34:22;3.70;;;3.20;;
35990;SDS011;22064;42.672;23.282;2023-03-01T02:36:57;4.07;;;3.23;;
35990;SDS011;22064;42.672;23.282;2023-03-01T02:39:39;3.78;;;3.00;;
35990;SDS011;22064;42.672;23.282;2023-03-01T02:42:17;3.58;;;3.03;;
35990;SDS011;22064;42.672;23.282;2023-03-01T02:44:49;4.32;;;3.13;;
35990;SDS011;22064;42.672;23.282;2023-03-01T02:47:15;5.22;;;3.30;;
35990;SDS011;22064;42.672;23.282;2023-03-01T02:49:41;4.60;;;3.42;;
35990;SDS011;22064;42.672;23.282;2023-03-01T02:54:39;4.20;;;3.20;;
35990;SDS011;22064;42.672;23.282;2023-03-01T02:57:05;4.53;;;3.65;;
35990;SDS011;22064;42.672;23.282;2023-03-01T02:59:33;6.15;;;3.83;;
35990;SDS011;22064;42.672;23.282;2023-03-01T03:02:06;5.50;;;3.65;;
35990;SDS011;22064;42.672;23.282;2023-03-01T03:04:33;5.95;;;3.92;;
35990;SDS011;22064;42.672;23.282;2023-03-01T03:07:00;6.20;;;4.10;;
35990;SDS011;22064;42.672;23.282;2023-03-01T03:09:26;6.13;;;3.97;;
35990;SDS011;22064;42.672;23.282;2023-03-01T03:11:51;6.68;;;4.15;;
35990;SDS011;22064;42.672;23.282;2023-03-01T03:14:18;6.93;;;4.35;;
35990;SDS011;22064;42.672;23.282;2023-03-01T03:16:47;8.60;;;4.95;;
35990;SDS011;22064;42.672;23.282;2023-03-01T03:19:15;8.27;;;4.60;;
35990;SDS011;22064;42.672;23.282;2023-03-01T03:21:42;8.13;;;4.60;;
35990;SDS011;22064;42.672;23.282;2023-03-01T03:24:08;8.48;;;4.70;;
35990;SDS011;22064;42.672;23.282;2023-03-01T03:26:34;7.93;;;4.60;;
35990;SDS011;22064;42.672;23.282;2023-03-01T03:29:00;9.32;;;5.05;;
35990;SDS011;22064;42.672;23.282;2023-03-01T03:31:26;8.88;;;5.03;;
35990;SDS011;22064;42.672;23.282;2023-03-01T03:33:52;10.70;;;5.15;;
35990;SDS011;22064;42.672;23.282;2023-03-01T03:36:20;10.65;;;5.63;;
35990;SDS011;22064;42.672;23.282;2023-03-01T03:38:48;9.27;;;4.90;;
35990;SDS011;22064;42.672;23.282;2023-03-01T03:41:14;10.90;;;5.75;;
35990;SDS011;22064;42.672;23.282;2023-03-01T03:43:42;11.43;;;5.72;;
35990;SDS011;22064;42.672;23.282;2023-03-01T03:46:09;11.10;;;6.00;;
35990;SDS011;22064;42.672;23.282;2023-03-01T03:48:37;12.20;;;5.90;;
35990;SDS011;22064;42.672;23.282;2023-03-01T03:51:06;9.13;;;5.43;;
35990;SDS011;22064;42.672;23.282;2023-03-01T03:53:35;8.87;;;5.23;;
35990;SDS011;22064;42.672;23.282;2023-03-01T03:56:00;11.93;;;5.40;;
35990;SDS011;22064;42.672;23.282;2023-03-01T03:58:26;11.68;;;5.38;;
35990;SDS011;22064;42.672;23.282;2023-03-01T04:00:54;10.57;;;4.93;;
35990;SDS011;22064;42.672;23.282;2023-03-01T04:03:22;6.28;;;3.47;;
35990;SDS011;22064;42.672;23.282;2023-03-01T04:05:49;7.82;;;4.40;;
35990;SDS011;22064;42.672;23.282;2023-03-01T04:08:16;8.80;;;4.55;;
35990;SDS011;22064;42.672;23.282;2023-03-01T04:10:48;10.35;;;5.05;;
35990;SDS011;22064;42.672;23.282;2023-03-01T04:13:16;7.40;;;3.80;;
35990;SDS011;22064;42.672;23.282;2023-03-01T04:15:48;9.52;;;4.80;;
35990;SDS011;22064;42.672;23.282;2023-03-01T04:18:16;10.07;;;4.72;;
35990;SDS011;22064;42.672;23.282;2023-03-01T04:20:43;9.10;;;5.07;;
35990;SDS011;22064;42.672;23.282;2023-03-01T04:23:12;8.05;;;4.68;;
35990;SDS011;22064;42.672;23.282;2023-03-01T04:28:09;8.98;;;4.88;;
35990;SDS011;22064;42.672;23.282;2023-03-01T04:30:36;9.30;;;4.50;;
35990;SDS011;22064;42.672;23.282;2023-03-01T04:33:03;9.20;;;4.45;;
35990;SDS011;22064;42.672;23.282;2023-03-01T04:35:31;9.38;;;4.22;;
35990;SDS011;22064;42.672;23.282;2023-03-01T04:37:57;8.10;;;4.07;;
35990;SDS011;22064;42.672;23.282;2023-03-01T04:40:23;8.15;;;4.32;;
35990;SDS011;22064;42.672;23.282;2023-03-01T04:42:50;11.27;;;4.70;;
35990;SDS011;22064;42.672;23.282;2023-03-01T04:45:16;8.55;;;4.07;;
35990;SDS011;22064;42.672;23.282;2023-03-01T04:47:43;7.50;;;4.20;;
35990;SDS011;22064;42.672;23.282;2023-03-01T04:50:12;8.27;;;4.30;;
35990;SDS011;22064;42.672;23.282;2023-03-01T04:52:43;11.98;;;5.07;;
35990;SDS011;22064;42.672;23.282;2023-03-01T04:55:09;9.05;;;4.82;;
35990;SDS011;22064;42.672;23.282;2023-03-01T04:57:36;8.63;;;4.60;;
35990;SDS011;22064;42.672;23.282;2023-03-01T05:00:02;11.55;;;5.32;;
35990;SDS011;22064;42.672;23.282;2023-03-01T05:02:52;9.95;;;5.10;;
35990;SDS011;22064;42.672;23.282;2023-03-01T05:05:30;10.05;;;5.28;;
35990;SDS011;22064;42.672;23.282;2023-03-01T05:07:59;8.52;;;4.63;;
35990;SDS011;22064;42.672;23.282;2023-03-01T05:10:27;8.77;;;4.45;;
35990;SDS011;22064;42.672;23.282;2023-03-01T05:12:58;7.88;;;4.13;;
35990;SDS011;22064;42.672;23.282;2023-03-01T05:15:25;9.75;;;4.57;;
35990;SDS011;22064;42.672;23.282;2023-03-01T05:17:54;12.13;;;5.65;;
35990;SDS011;22064;42.672;23.282;2023-03-01T05:20:23;8.10;;;4.38;;
35990;SDS011;22064;42.672;23.282;2023-03-01T05:22:51;8.65;;;4.40;;
35990;SDS011;22064;42.672;23.282;2023-03-01T05:25:17;11.00;;;4.75;;
35990;SDS011;22064;42.672;23.282;2023-03-01T05:27:43;9.57;;;4.90;;
35990;SDS011;22064;42.672;23.282;2023-03-01T05:30:09;8.70;;;5.10;;
35990;SDS011;22064;42.672;23.282;2023-03-01T05:32:40;10.10;;;4.88;;
35990;SDS011;22064;42.672;23.282;2023-03-01T05:35:11;9.20;;;4.88;;
35990;SDS011;22064;42.672;23.282;2023-03-01T05:37:48;8.77;;;5.20;;
35990;SDS011;22064;42.672;23.282;2023-03-01T05:40:16;10.07;;;5.35;;
35990;SDS011;22064;42.672;23.282;2023-03-01T05:42:44;7.80;;;4.30;;
35990;SDS011;22064;42.672;23.282;2023-03-01T05:45:12;9.60;;;5.00;;
35990;SDS011;22064;42.672;23.282;2023-03-01T05:47:40;7.35;;;4.28;;
35990;SDS011;22064;42.672;23.282;2023-03-01T05:50:18;8.93;;;4.55;;
35990;SDS011;22064;42.672;23.282;2023-03-01T05:52:47;9.10;;;4.38;;
35990;SDS011;22064;42.672;23.282;2023-03-01T05:55:16;7.57;;;4.60;;
35990;SDS011;22064;42.672;23.282;2023-03-01T05:57:42;8.73;;;4.22;;
35990;SDS011;22064;42.672;23.282;2023-03-01T06:00:09;7.32;;;4.20;;
35990;SDS011;22064;42.672;23.282;2023-03-01T06:05:05;9.07;;;4.20;;
35990;SDS011;22064;42.672;23.282;2023-03-01T06:07:32;8.18;;;4.10;;
35990;SDS011;22064;42.672;23.282;2023-03-01T06:09:58;5.50;;;3.60;;
35990;SDS011;22064;42.672;23.282;2023-03-01T06:12:24;8.95;;;4.35;;
35990;SDS011;22064;42.672;23.282;2023-03-01T06:14:50;7.70;;;4.10;;
35990;SDS011;22064;42.672;23.282;2023-03-01T06:17:16;8.75;;;4.32;;
35990;SDS011;22064;42.672;23.282;2023-03-01T06:19:42;7.57;;;4.13;;
35990;SDS011;22064;42.672;23.282;2023-03-01T06:22:08;7.15;;;4.32;;
35990;SDS011;22064;42.672;23.282;2023-03-01T06:24:34;13.10;;;5.00;;
35990;SDS011;22064;42.672;23.282;2023-03-01T06:26:59;9.80;;;4.95;;
35990;SDS011;22064;42.672;23.282;2023-03-01T06:29:25;11.45;;;5.57;;
35990;SDS011;22064;42.672;23.282;2023-03-01T06:31:51;10.68;;;4.75;;
35990;SDS011;22064;42.672;23.282;2023-03-01T06:34:18;10.25;;;5.20;;
35990;SDS011;22064;42.672;23.282;2023-03-01T06:36:44;11.02;;;4.90;;
35990;SDS011;22064;42.672;23.282;2023-03-01T06:39:11;9.57;;;4.72;;
35990;SDS011;22064;42.672;23.282;2023-03-01T06:41:37;9.15;;;4.80;;
35990;SDS011;22064;42.672;23.282;2023-03-01T06:44:03;11.88;;;4.65;;
35990;SDS011;22064;42.672;23.282;2023-03-01T06:46:29;9.85;;;4.60;;
35990;SDS011;22064;42.672;23.282;2023-03-01T06:48:55;8.45;;;4.55;;
35990;SDS011;22064;42.672;23.282;2023-03-01T06:51:21;7.50;;;4.20;;
35990;SDS011;22064;42.672;23.282;2023-03-01T06:53:47;9.20;;;4.50;;
35990;SDS011;22064;42.672;23.282;2023-03-01T06:56:13;10.27;;;4.38;;
35990;SDS011;22064;42.672;23.282;2023-03-01T06:58:39;9.15;;;4.68;;
35990;SDS011;22064;42.672;23.282;2023-03-01T07:01:06;7.95;;;4.40;;
35990;SDS011;22064;42.672;23.282;2023-03-01T07:03:33;10.93;;;4.93;;
35990;SDS011;22064;42.672;23.282;2023-03-01T07:05:59;9.63;;;4.72;;
35990;SDS011;22064;42.672;23.282;2023-03-01T07:08:25;12.45;;;4.97;;
35990;SDS011;22064;42.672;23.282;2023-03-01T07:10:58;8.90;;;4.72;;
35990;SDS011;22064;42.672;23.282;2023-03-01T07:13:24;8.55;;;4.20;;
35990;SDS011;22064;42.672;23.282;2023-03-01T07:15:50;9.25;;;4.28;;
35990;SDS011;22064;42.672;23.282;2023-03-01T07:18:16;9.25;;;4.30;;
35990;SDS011;22064;42.672;23.282;2023-03-01T07:20:42;7.72;;;3.55;;
35990;SDS011;22064;42.672;23.282;2023-03-01T07:23:08;10.13;;;3.88;;
35990;SDS011;22064;42.672;23.282;2023-03-01T07:25:34;6.53;;;3.78;;
35990;SDS011;22064;42.672;23.282;2023-03-01T07:28:00;11.15;;;4.20;;
35990;SDS011;22064;42.672;23.282;2023-03-01T07:30:26;10.20;;;3.85;;
35990;SDS011;22064;42.672;23.282;2023-03-01T07:32:54;7.43;;;3.58;;
35990;SDS011;22064;42.672;23.282;2023-03-01T07:35:21;8.77;;;3.85;;
35990;SDS011;22064;42.672;23.282;2023-03-01T07:37:48;5.97;;;3.42;;
35990;SDS011;22064;42.672;23.282;2023-03-01T07:40:14;10.13;;;4.10;;
35990;SDS011;22064;42.672;23.282;2023-03-01T07:42:40;6.80;;;3.95;;
35990;SDS011;22064;42.672;23.282;2023-03-01T07:45:06;6.30;;;3.50;;
35990;SDS011;22064;42.672;23.282;2023-03-01T07:47:32;6.55;;;3.50;;
35990;SDS011;22064;42.672;23.282;2023-03-01T07:49:58;9.85;;;4.13;;
35990;SDS011;22064;42.672;23.282;2023-03-01T07:52:24;8.68;;;4.03;;
35990;SDS011;22064;42.672;23.282;2023-03-01T07:54:50;6.90;;;3.65;;
35990;SDS011;22064;42.672;23.282;2023-03-01T07:57:16;5.38;;;3.20;;
35990;SDS011;22064;42.672;23.282;2023-03-01T07:59:42;7.18;;;3.95;;
35990;SDS011;22064;42.672;23.282;2023-03-01T08:02:08;7.78;;;3.60;;
35990;SDS011;22064;42.672;23.282;2023-03-01T08:04:35;9.10;;;3.70;;
35990;SDS011;22064;42.672;23.282;2023-03-01T08:07:04;7.00;;;4.00;;
35990;SDS011;22064;42.672;23.282;2023-03-01T08:09:31;7.57;;;3.83;;
35990;SDS011;22064;42.672;23.282;2023-03-01T08:11:57;7.38;;;4.10;;
35990;SDS011;22064;42.672;23.282;2023-03-01T08:14:26;6.07;;;3.75;;
35990;SDS011;22064;42.672;23.282;2023-03-01T08:16:52;7.15;;;3.65;;
35990;SDS011;22064;42.672;23.282;2023-03-01T08:19:18;9.57;;;3.75;;
35990;SDS011;22064;42.672;23.282;2023-03-01T08:21:43;6.35;;;3.58;;
35990;SDS011;22064;42.672;23.282;2023-03-01T08:24:09;7.65;;;4.18;;
35990;SDS011;22064;42.672;23.282;2023-03-01T08:26:35;7.10;;;5.07;;
35990;SDS011;22064;42.672;23.282;2023-03-01T08:29:02;10.50;;;5.30;;
35990;SDS011;22064;42.672;23.282;2023-03-01T08:31:30;10.32;;;5.72;;
35990;SDS011;22064;42.672;23.282;2023-03-01T08:33:59;7.63;;;4.90;;
35990;SDS011;22064;42.672;23.282;2023-03-01T08:36:30;9.27;;;5.22;;
35990;SDS011;22064;42.672;23.282;2023-03-01T08:39:04;10.73;;;5.93;;
35990;SDS011;22064;42.672;23.282;2023-03-01T08:41:32;14.30;;;5.97;;
35990;SDS011;22064;42.672;23.282;2023-03-01T08:43:58;7.82;;;5.32;;
35990;SDS011;22064;42.672;23.282;2023-03-01T08:46:25;7.95;;;5.50;;
35990;SDS011;22064;42.672;23.282;2023-03-01T08:49:05;8.52;;;4.95;;
35990;SDS011;22064;42.672;23.282;2023-03-01T08:51:33;8.05;;;4.70;;
35990;SDS011;22064;42.672;23.282;2023-03-01T08:54:02;7.07;;;4.55;;
35990;SDS011;22064;42.672;23.282;2023-03-01T08:56:29;8.52;;;4.45;;
35990;SDS011;22064;42.672;23.282;2023-03-01T08:58:56;6.25;;;4.63;;
35990;SDS011;22064;42.672;23.282;2023-03-01T09:01:22;5.90;;;3.67;;
35990;SDS011;22064;42.672;23.282;2023-03-01T09:03:48;6.50;;;3.40;;
35990;SDS011;22064;42.672;23.282;2023-03-01T09:06:14;5.55;;;3.78;;
35990;SDS011;22064;42.672;23.282;2023-03-01T09:08:42;6.93;;;4.15;;
35990;SDS011;22064;42.672;23.282;2023-03-01T09:11:11;6.63;;;3.80;;
35990;SDS011;22064;42.672;23.282;2023-03-01T09:13:38;7.13;;;4.07;;
35990;SDS011;22064;42.672;23.282;2023-03-01T09:16:05;6.38;;;4.07;;
35990;SDS011;22064;42.672;23.282;2023-03-01T09:18:33;5.75;;;4.10;;
35990;SDS011;22064;42.672;23.282;2023-03-01T09:23:45;6.03;;;3.75;;
35990;SDS011;22064;42.672;23.282;2023-03-01T09:26:17;9.10;;;4.70;;
35990;SDS011;22064;42.672;23.282;2023-03-01T09:28:46;10.35;;;4.22;;
35990;SDS011;22064;42.672;23.282;2023-03-01T09:31:13;8.50;;;4.10;;
35990;SDS011;22064;42.672;23.282;2023-03-01T09:33:40;7.35;;;3.88;;
35990;SDS011;22064;42.672;23.282;2023-03-01T09:36:10;4.88;;;3.60;;
35990;SDS011;22064;42.672;23.282;2023-03-01T09:38:38;7.85;;;4.10;;
35990;SDS011;22064;42.672;23.282;2023-03-01T09:41:09;11.55;;;4.50;;
35990;SDS011;22064;42.672;23.282;2023-03-01T09:43:46;11.80;;;5.15;;
35990;SDS011;22064;42.672;23.282;2023-03-01T09:46:22;10.73;;;4.20;;
35990;SDS011;22064;42.672;23.282;2023-03-01T09:48:50;5.53;;;3.40;;
35990;SDS011;22064;42.672;23.282;2023-03-01T09:51:18;9.30;;;3.47;;
35990;SDS011;22064;42.672;23.282;2023-03-01T09:53:49;5.00;;;2.95;;
35990;SDS011;22064;42.672;23.282;2023-03-01T09:56:19;8.30;;;3.70;;
35990;SDS011;22064;42.672;23.282;2023-03-01T09:58:54;8.02;;;3.92;;
35990;SDS011;22064;42.672;23.282;2023-03-01T10:07:12;4.75;;;3.00;;
35990;SDS011;22064;42.672;23.282;2023-03-01T10:09:45;5.93;;;2.65;;
35990;SDS011;22064;42.672;23.282;2023-03-01T10:12:14;6.28;;;2.95;;
35990;SDS011;22064;42.672;23.282;2023-03-01T10:14:58;5.20;;;2.53;;
35990;SDS011;22064;42.672;23.282;2023-03-01T10:17:44;5.25;;;3.10;;
35990;SDS011;22064;42.672;23.282;2023-03-01T10:20:17;5.88;;;2.78;;
35990;SDS011;22064;42.672;23.282;2023-03-01T10:22:48;5.60;;;3.22;;
35990;SDS011;22064;42.672;23.282;2023-03-01T10:25:23;5.00;;;3.25;;
35990;SDS011;22064;42.672;23.282;2023-03-01T10:28:20;7.55;;;3.42;;
35990;SDS011;22064;42.672;23.282;2023-03-01T10:30:51;9.60;;;3.35;;
35990;SDS011;22064;42.672;23.282;2023-03-01T10:33:28;5.78;;;3.42;;
35990;SDS011;22064;42.672;23.282;2023-03-01T10:35:57;4.65;;;3.25;;
35990;SDS011;22064;42.672;23.282;2023-03-01T10:38:24;7.72;;;3.60;;
35990;SDS011;22064;42.672;23.282;2023-03-01T10:40:51;6.35;;;3.50;;
35990;SDS011;22064;42.672;23.282;2023-03-01T10:43:50;7.07;;;4.03;;
35990;SDS011;22064;42.672;23.282;2023-03-01T10:49:20;6.18;;;3.35;;
35990;SDS011;22064;42.672;23.282;2023-03-01T10:51:46;7.60;;;4.00;;
35990;SDS011;22064;42.672;23.282;2023-03-01T10:54:25;10.00;;;4.45;;
35990;SDS011;22064;42.672;23.282;2023-03-01T10:56:54;5.10;;;3.47;;
35990;SDS011;22064;42.672;23.282;2023-03-01T11:04:53;9.35;;;4.38;;
35990;SDS011;22064;42.672;23.282;2023-03-01T11:07:26;6.03;;;3.58;;
35990;SDS011;22064;42.672;23.282;2023-03-01T11:09:52;7.65;;;4.28;;
35990;SDS011;22064;42.672;23.282;2023-03-01T11:12:19;6.72;;;4.05;;
35990;SDS011;22064;42.672;23.282;2023-03-01T11:14:47;7.43;;;4.20;;
35990;SDS011;22064;42.672;23.282;2023-03-01T11:17:18;15.68;;;4.40;;
35990;SDS011;22064;42.672;23.282;2023-03-01T11:20:15;7.47;;;3.63;;
35990;SDS011;22064;42.672;23.282;2023-03-01T11:22:51;5.88;;;3.60;;
35990;SDS011;22064;42.672;23.282;2023-03-01T11:25:19;5.65;;;4.03;;
35990;SDS011;22064;42.672;23.282;2023-03-01T11:27:51;6.78;;;3.60;;
35990;SDS011;22064;42.672;23.282;2023-03-01T11:30:29;7.47;;;3.90;;
35990;SDS011;22064;42.672;23.282;2023-03-01T11:33:11;8.63;;;4.40;;
35990;SDS011;22064;42.672;23.282;2023-03-01T11:35:59;5.65;;;3.50;;
35990;SDS011;22064;42.672;23.282;2023-03-01T11:38:34;7.70;;;4.18;;
35990;SDS011;22064;42.672;23.282;2023-03-01T11:41:11;8.13;;;3.70;;
35990;SDS011;22064;42.672;23.282;2023-03-01T11:44:02;7.32;;;3.92;;
35990;SDS011;22064;42.672;23.282;2023-03-01T11:52:07;10.18;;;4.25;;
35990;SDS011;22064;42.672;23.282;2023-03-01T12:19:58;8.73;;;4.90;;
35990;SDS011;22064;42.672;23.282;2023-03-01T12:22:43;9.10;;;5.07;;
35990;SDS011;22064;42.672;23.282;2023-03-01T12:33:44;7.05;;;4.15;;
35990;SDS011;22064;42.672;23.282;2023-03-01T12:39:06;9.18;;;5.00;;
35990;SDS011;22064;42.672;23.282;2023-03-01T12:42:05;10.05;;;4.85;;
35990;SDS011;22064;42.672;23.282;2023-03-01T12:44:40;10.18;;;4.93;;
35990;SDS011;22064;42.672;23.282;2023-03-01T12:50:11;12.35;;;5.70;;
35990;SDS011;22064;42.672;23.282;2023-03-01T12:52:52;10.50;;;5.00;;
35990;SDS011;22064;42.672;23.282;2023-03-01T12:55:41;8.98;;;4.85;;
35990;SDS011;22064;42.672;23.282;2023-03-01T12:58:21;7.88;;;4.47;;
35990;SDS011;22064;42.672;23.282;2023-03-01T13:11:58;8.23;;;4.57;;
35990;SDS011;22064;42.672;23.282;2023-03-01T13:16:51;11.95;;;4.70;;
35990;SDS011;22064;42.672;23.282;2023-03-01T13:21:45;8.95;;;4.47;;
35990;SDS011;22064;42.672;23.282;2023-03-01T13:29:45;8.43;;;4.50;;
35990;SDS011;22064;42.672;23.282;2023-03-01T13:32:20;9.05;;;4.72;;
35990;SDS011;22064;42.672;23.282;2023-03-01T13:35:00;7.80;;;4.40;;
35990;SDS011;22064;42.672;23.282;2023-03-01T13:37:30;12.55;;;5.15;;
35990;SDS011;22064;42.672;23.282;2023-03-01T13:39:58;9.85;;;4.80;;
35990;SDS011;22064;42.672;23.282;2023-03-01T13:42:34;6.78;;;4.45;;
35990;SDS011;22064;42.672;23.282;2023-03-01T13:45:03;11.38;;;5.30;;
35990;SDS011;22064;42.672;23.282;2023-03-01T13:47:40;8.93;;;4.70;;
35990;SDS011;22064;42.672;23.282;2023-03-01T13:50:15;7.88;;;5.03;;
35990;SDS011;22064;42.672;23.282;2023-03-01T13:52:44;8.15;;;4.90;;
35990;SDS011;22064;42.672;23.282;2023-03-01T13:55:17;9.23;;;4.88;;
35990;SDS011;22064;42.672;23.282;2023-03-01T13:58:13;9.02;;;5.13;;
35990;SDS011;22064;42.672;23.282;2023-03-01T14:00:41;9.27;;;4.72;;
35990;SDS011;22064;42.672;23.282;2023-03-01T14:03:12;8.63;;;4.88;;
35990;SDS011;22064;42.672;23.282;2023-03-01T14:05:50;9.45;;;5.20;;
35990;SDS011;22064;42.672;23.282;2023-03-01T14:08:34;9.88;;;5.00;;
35990;SDS011;22064;42.672;23.282;2023-03-01T14:19:05;13.32;;;6.00;;
35990;SDS011;22064;42.672;23.282;2023-03-01T14:21:43;9.35;;;5.18;;
35990;SDS011;22064;42.672;23.282;2023-03-01T14:24:20;10.52;;;5.20;;
35990;SDS011;22064;42.672;23.282;2023-03-01T14:26:48;10.32;;;5.10;;
35990;SDS011;22064;42.672;23.282;2023-03-01T14:29:25;10.95;;;5.07;;
35990;SDS011;22064;42.672;23.282;2023-03-01T14:32:12;10.10;;;4.75;;
35990;SDS011;22064;42.672;23.282;2023-03-01T14:34:43;9.48;;;4.57;;
35990;SDS011;22064;42.672;23.282;2023-03-01T14:37:15;9.82;;;5.05;;
35990;SDS011;22064;42.672;23.282;2023-03-01T14:39:46;11.07;;;5.28;;
35990;SDS011;22064;42.672;23.282;2023-03-01T14:42:12;11.23;;;5.03;;
35990;SDS011;22064;42.672;23.282;2023-03-01T14:44:40;8.38;;;4.30;;
35990;SDS011;22064;42.672;23.282;2023-03-01T14:47:12;8.10;;;4.43;;
35990;SDS011;22064;42.672;23.282;2023-03-01T14:49:42;12.23;;;5.40;;
35990;SDS011;22064;42.672;23.282;2023-03-01T14:52:21;9.32;;;5.00;;
35990;SDS011;22064;42.672;23.282;2023-03-01T14:54:57;10.18;;;5.25;;
35990;SDS011;22064;42.672;23.282;2023-03-01T14:57:24;11.70;;;5.85;;
35990;SDS011;22064;42.672;23.282;2023-03-01T14:59:52;12.23;;;5.17;;
35990;SDS011;22064;42.672;23.282;2023-03-01T15:02:21;5.72;;;3.78;;
35990;SDS011;22064;42.672;23.282;2023-03-01T15:04:51;8.55;;;4.28;;
35990;SDS011;22064;42.672;23.282;2023-03-01T15:07:22;7.05;;;3.78;;
35990;SDS011;22064;42.672;23.282;2023-03-01T15:09:53;9.05;;;3.92;;
35990;SDS011;22064;42.672;23.282;2023-03-01T15:14:55;9.77;;;4.18;;
35990;SDS011;22064;42.672;23.282;2023-03-01T15:17:32;9.38;;;4.13;;
35990;SDS011;22064;42.672;23.282;2023-03-01T15:20:00;8.63;;;4.22;;
35990;SDS011;22064;42.672;23.282;2023-03-01T15:22:29;10.18;;;4.63;;
35990;SDS011;22064;42.672;23.282;2023-03-01T15:24:55;10.27;;;4.30;;
35990;SDS011;22064;42.672;23.282;2023-03-01T15:27:22;6.85;;;3.67;;
35990;SDS011;22064;42.672;23.282;2023-03-01T15:29:52;11.85;;;4.82;;
35990;SDS011;22064;42.672;23.282;2023-03-01T15:32:33;8.43;;;4.32;;
35990;SDS011;22064;42.672;23.282;2023-03-01T15:35:33;10.68;;;4.85;;
35990;SDS011;22064;42.672;23.282;2023-03-01T15:40:55;9.45;;;4.97;;
35990;SDS011;22064;42.672;23.282;2023-03-01T15:43:38;12.50;;;5.88;;
35990;SDS011;22064;42.672;23.282;2023-03-01T15:48:50;13.02;;;6.18;;
35990;SDS011;22064;42.672;23.282;2023-03-01T15:51:22;10.80;;;5.30;;
35990;SDS011;22064;42.672;23.282;2023-03-01T15:53:55;14.70;;;6.20;;
35990;SDS011;22064;42.672;23.282;2023-03-01T15:56:23;11.00;;;5.28;;
35990;SDS011;22064;42.672;23.282;2023-03-01T15:58:49;11.02;;;5.10;;
35990;SDS011;22064;42.672;23.282;2023-03-01T16:01:17;13.45;;;5.82;;
35990;SDS011;22064;42.672;23.282;2023-03-01T16:03:44;14.13;;;6.10;;
35990;SDS011;22064;42.672;23.282;2023-03-01T16:06:10;10.90;;;4.97;;
35990;SDS011;22064;42.672;23.282;2023-03-01T16:08:38;16.17;;;7.53;;
35990;SDS011;22064;42.672;23.282;2023-03-01T16:11:04;11.88;;;5.28;;
35990;SDS011;22064;42.672;23.282;2023-03-01T16:13:38;10.82;;;4.70;;
35990;SDS011;22064;42.672;23.282;2023-03-01T16:16:04;11.25;;;5.40;;
35990;SDS011;22064;42.672;23.282;2023-03-01T16:18:30;10.80;;;4.45;;
35990;SDS011;22064;42.672;23.282;2023-03-01T16:20:56;11.82;;;4.93;;
35990;SDS011;22064;42.672;23.282;2023-03-01T16:23:22;12.48;;;5.32;;
35990;SDS011;22064;42.672;23.282;2023-03-01T16:25:50;11.68;;;5.07;;
35990;SDS011;22064;42.672;23.282;2023-03-01T16:28:16;10.82;;;5.03;;
35990;SDS011;22064;42.672;23.282;2023-03-01T16:30:45;12.43;;;5.00;;
35990;SDS011;22064;42.672;23.282;2023-03-01T16:33:12;9.88;;;5.05;;
35990;SDS011;22064;42.672;23.282;2023-03-01T16:35:39;9.95;;;4.72;;
35990;SDS011;22064;42.672;23.282;2023-03-01T16:38:05;12.18;;;5.63;;
35990;SDS011;22064;42.672;23.282;2023-03-01T16:40:31;12.40;;;5.05;;
35990;SDS011;22064;42.672;23.282;2023-03-01T16:42:58;13.85;;;5.32;;